createdAt,value
2017-05-15T00:00:21.158Z,0
2017-05-15T00:01:36.986Z,0
2017-05-15T00:02:49.990Z,0
2017-05-15T00:04:04.982Z,0
2017-05-15T00:05:20.356Z,0
2017-05-15T00:06:34.659Z,0
2017-05-15T00:07:48.397Z,0
2017-05-15T00:09:03.766Z,0
2017-05-15T00:10:19.130Z,0
2017-05-15T00:11:34.499Z,0
2017-05-15T00:12:50.035Z,0
2017-05-15T00:14:05.503Z,0
2017-05-15T00:15:19.679Z,0
2017-05-15T00:16:33.696Z,0
2017-05-15T00:17:48.032Z,0
2017-05-15T00:19:01.994Z,0
2017-05-15T00:20:16.146Z,0
2017-05-15T00:21:31.492Z,0
2017-05-15T00:22:47.016Z,0
2017-05-15T00:24:02.373Z,0
2017-05-15T00:25:16.440Z,0
2017-05-15T00:26:30.496Z,0
2017-05-15T00:27:46.151Z,0
2017-05-15T00:29:01.480Z,0
2017-05-15T00:30:16.885Z,0
2017-05-15T00:31:32.226Z,0
2017-05-15T00:32:47.926Z,0
2017-05-15T00:34:02.008Z,0
2017-05-15T00:35:17.394Z,0
2017-05-15T00:36:32.739Z,0
2017-05-15T00:37:48.273Z,0
2017-05-15T00:39:03.842Z,0
2017-05-15T00:40:18.807Z,0
2017-05-15T00:41:34.399Z,0
2017-05-15T00:42:50.098Z,0
2017-05-15T00:44:05.514Z,0
2017-05-15T00:45:21.028Z,0
2017-05-15T00:46:36.375Z,0
2017-05-15T00:47:50.721Z,0
2017-05-15T00:49:05.944Z,0
2017-05-15T00:50:20.912Z,0
2017-05-15T00:51:36.237Z,0
2017-05-15T00:52:50.554Z,0
2017-05-15T00:54:04.624Z,0
2017-05-15T00:55:19.975Z,0
2017-05-15T00:56:35.548Z,0
2017-05-15T00:57:48.336Z,0
2017-05-15T00:59:03.872Z,0
2017-05-15T01:00:17.933Z,0
2017-05-15T01:01:33.338Z,0
2017-05-15T01:02:47.270Z,0
2017-05-15T01:04:33.563Z,0
2017-05-15T01:05:48.959Z,0
2017-05-15T01:07:04.390Z,0
2017-05-15T01:08:18.297Z,0
2017-05-15T01:09:32.553Z,0
2017-05-15T01:10:47.920Z,0
2017-05-15T01:12:03.373Z,0
2017-05-15T01:13:16.170Z,0
2017-05-15T01:14:30.444Z,0
2017-05-15T01:15:44.523Z,0
2017-05-15T01:16:58.558Z,0
2017-05-15T01:18:13.942Z,0
2017-05-15T01:19:59.061Z,0
2017-05-15T01:21:10.541Z,0
2017-05-15T01:22:24.610Z,0
2017-05-15T01:23:37.255Z,0
2017-05-15T01:24:51.516Z,0
2017-05-15T01:26:06.927Z,0
2017-05-15T01:27:21.058Z,0
2017-05-15T01:28:36.830Z,0
2017-05-15T01:29:50.896Z,0
2017-05-15T01:31:05.189Z,0
2017-05-15T01:32:20.516Z,0
2017-05-15T01:33:35.878Z,0
2017-05-15T01:34:50.028Z,0
2017-05-15T01:36:04.478Z,0
2017-05-15T01:37:19.816Z,0
2017-05-15T01:38:32.594Z,0
2017-05-15T01:39:46.542Z,0
2017-05-15T01:41:02.117Z,0
2017-05-15T01:42:17.510Z,0
2017-05-15T01:43:31.683Z,0
2017-05-15T01:44:47.252Z,0
2017-05-15T01:46:02.791Z,0
2017-05-15T01:47:18.127Z,0
2017-05-15T01:48:33.483Z,0
2017-05-15T01:49:48.809Z,0
2017-05-15T01:51:04.590Z,0
2017-05-15T01:52:18.678Z,0
2017-05-15T01:53:34.014Z,0
2017-05-15T01:54:49.403Z,0
2017-05-15T01:56:03.535Z,0
2017-05-15T01:57:18.888Z,0
2017-05-15T01:58:32.938Z,0
2017-05-15T01:59:48.308Z,0
2017-05-15T02:01:03.831Z,0
2017-05-15T02:02:19.192Z,0
2017-05-15T02:03:34.669Z,0
2017-05-15T02:04:50.032Z,0
2017-05-15T02:06:05.665Z,0
2017-05-15T02:07:21.022Z,0
2017-05-15T02:08:36.626Z,0
2017-05-15T02:09:50.670Z,0
2017-05-15T02:11:04.748Z,0
2017-05-15T02:12:20.373Z,0
2017-05-15T02:13:34.509Z,0
2017-05-15T02:14:47.180Z,0
2017-05-15T02:16:01.236Z,0
2017-05-15T02:17:16.808Z,0
2017-05-15T02:18:30.907Z,0
2017-05-15T02:19:46.264Z,0
2017-05-15T02:21:00.297Z,0
2017-05-15T02:22:14.554Z,0
2017-05-15T02:23:29.917Z,0
2017-05-15T02:24:43.829Z,0
2017-05-15T02:25:59.398Z,0
2017-05-15T02:27:14.923Z,0
2017-05-15T02:28:30.327Z,0
2017-05-15T02:29:45.689Z,0
2017-05-15T02:30:58.312Z,0
2017-05-15T02:32:12.551Z,0
2017-05-15T02:33:28.123Z,0
2017-05-15T02:34:43.451Z,0
2017-05-15T02:35:56.213Z,0
2017-05-15T02:37:10.506Z,0
2017-05-15T02:38:25.884Z,0
2017-05-15T02:39:39.925Z,0
2017-05-15T02:40:54.912Z,0
2017-05-15T02:42:10.233Z,0
2017-05-15T02:43:25.760Z,0
2017-05-15T02:44:41.153Z,0
2017-05-15T02:45:55.202Z,0
2017-05-15T02:47:10.556Z,0
2017-05-15T02:48:24.810Z,0
2017-05-15T02:49:38.858Z,0
2017-05-15T02:50:52.909Z,0
2017-05-15T02:52:08.265Z,0
2017-05-15T02:53:22.572Z,0
2017-05-15T02:54:37.955Z,0
2017-05-15T02:55:52.008Z,0
2017-05-15T02:57:06.975Z,0
2017-05-15T02:58:22.504Z,0
2017-05-15T02:59:37.836Z,0
2017-05-15T03:00:50.684Z,0
2017-05-15T03:02:06.019Z,0
2017-05-15T03:03:21.285Z,0
2017-05-15T03:04:35.701Z,0
2017-05-15T03:05:49.751Z,0
2017-05-15T03:07:05.215Z,0
2017-05-15T03:08:19.286Z,0
2017-05-15T03:09:32.247Z,0
2017-05-15T03:10:46.295Z,0
2017-05-15T03:12:01.707Z,0
2017-05-15T03:13:15.756Z,5
2017-05-15T03:14:31.340Z,5
2017-05-15T03:15:46.675Z,5
2017-05-15T03:17:00.961Z,5
2017-05-15T03:18:16.319Z,5
2017-05-15T03:19:30.230Z,5
2017-05-15T03:21:16.419Z,5
2017-05-15T03:22:31.773Z,10
2017-05-15T03:23:45.852Z,10
2017-05-15T03:25:00.091Z,10
2017-05-15T03:26:13.807Z,10
2017-05-15T03:27:29.216Z,15
2017-05-15T03:28:44.580Z,15
2017-05-15T03:29:58.825Z,15
2017-05-15T03:31:11.581Z,15
2017-05-15T03:32:25.657Z,20
2017-05-15T03:33:40.997Z,20
2017-05-15T03:34:54.047Z,20
2017-05-15T03:36:08.088Z,25
2017-05-15T03:37:23.430Z,25
2017-05-15T03:38:37.883Z,30
2017-05-15T03:39:53.475Z,30
2017-05-15T03:41:07.401Z,30
2017-05-15T03:42:21.457Z,35
2017-05-15T03:43:36.788Z,35
2017-05-15T03:44:51.053Z,35
2017-05-15T03:46:06.447Z,40
2017-05-15T03:47:20.496Z,40
2017-05-15T03:48:34.405Z,45
2017-05-15T03:49:49.782Z,50
2017-05-15T03:51:05.356Z,50
2017-05-15T03:52:20.730Z,55
2017-05-15T03:53:36.064Z,60
2017-05-15T03:54:51.454Z,60
2017-05-15T03:56:07.046Z,65
2017-05-15T03:57:22.371Z,70
2017-05-15T03:58:36.410Z,70
2017-05-15T03:59:51.756Z,75
2017-05-15T04:01:07.328Z,80
2017-05-15T04:02:22.748Z,85
2017-05-15T04:03:38.136Z,80
2017-05-15T04:04:52.185Z,85
2017-05-15T04:06:06.315Z,85
2017-05-15T04:07:20.251Z,85
2017-05-15T04:08:35.631Z,85
2017-05-15T04:09:50.968Z,85
2017-05-15T04:11:03.980Z,85
2017-05-15T04:12:19.364Z,85
2017-05-15T04:13:32.149Z,90
2017-05-15T04:14:44.971Z,90
2017-05-15T04:15:59.084Z,90
2017-05-15T04:17:13.140Z,90
2017-05-15T04:18:27.059Z,90
2017-05-15T04:19:42.398Z,95
2017-05-15T04:20:56.531Z,95
2017-05-15T04:22:12.086Z,90
2017-05-15T04:23:27.423Z,90
2017-05-15T04:24:42.854Z,95
2017-05-15T04:25:56.807Z,100
2017-05-15T04:27:12.473Z,105
2017-05-15T04:28:27.809Z,105
2017-05-15T04:29:40.587Z,105
2017-05-15T04:30:55.954Z,105
2017-05-15T04:32:11.719Z,105
2017-05-15T04:33:24.483Z,100
2017-05-15T04:35:08.144Z,100
2017-05-15T04:36:22.289Z,100
2017-05-15T04:37:37.841Z,100
2017-05-15T04:38:53.250Z,100
2017-05-15T04:40:08.854Z,100
2017-05-15T04:41:22.924Z,100
2017-05-15T04:42:37.250Z,100
2017-05-15T04:43:51.346Z,100
2017-05-15T04:45:06.790Z,100
2017-05-15T04:46:20.844Z,105
2017-05-15T04:47:36.384Z,110
2017-05-15T04:48:50.438Z,115
2017-05-15T04:50:03.066Z,120
2017-05-15T04:51:18.462Z,130
2017-05-15T04:52:34.041Z,135
2017-05-15T04:53:46.812Z,145
2017-05-15T04:55:00.919Z,150
2017-05-15T04:56:15.079Z,155
2017-05-15T04:57:30.662Z,155
2017-05-15T04:58:43.301Z,160
2017-05-15T04:59:58.654Z,160
2017-05-15T05:01:13.990Z,170
2017-05-15T05:02:25.472Z,170
2017-05-15T05:03:39.719Z,170
2017-05-15T05:05:25.927Z,180
2017-05-15T05:06:41.354Z,180
2017-05-15T05:07:56.701Z,180
2017-05-15T05:09:12.433Z,195
2017-05-15T05:10:26.507Z,210
2017-05-15T05:11:40.477Z,245
2017-05-15T05:12:55.841Z,230
2017-05-15T05:14:10.079Z,235
2017-05-15T05:15:25.434Z,215
2017-05-15T05:16:40.861Z,210
2017-05-15T05:17:56.193Z,215
2017-05-15T05:19:10.331Z,220
2017-05-15T05:20:25.676Z,245
2017-05-15T05:21:38.345Z,245
2017-05-15T05:22:52.400Z,245
2017-05-15T05:24:06.663Z,265
2017-05-15T05:25:20.859Z,270
2017-05-15T05:26:36.238Z,280
2017-05-15T05:27:51.595Z,295
2017-05-15T05:29:07.201Z,320
2017-05-15T05:30:22.551Z,340
2017-05-15T05:31:37.892Z,355
2017-05-15T05:32:53.447Z,370
2017-05-15T05:34:07.568Z,375
2017-05-15T05:35:22.952Z,375
2017-05-15T05:36:36.999Z,345
2017-05-15T05:37:52.331Z,365
2017-05-15T05:39:07.919Z,390
2017-05-15T05:40:20.699Z,380
2017-05-15T05:41:36.043Z,380
2017-05-15T05:42:51.649Z,375
2017-05-15T05:44:06.999Z,365
2017-05-15T05:45:22.545Z,380
2017-05-15T05:46:37.885Z,335
2017-05-15T05:47:52.002Z,350
2017-05-15T05:49:07.343Z,375
2017-05-15T05:50:21.916Z,355
2017-05-15T05:51:37.277Z,390
2017-05-15T05:52:50.213Z,355
2017-05-15T05:54:05.205Z,350
2017-05-15T05:55:19.691Z,360
2017-05-15T05:56:35.080Z,355
2017-05-15T05:57:50.420Z,370
2017-05-15T05:59:05.774Z,375
2017-05-15T06:00:21.561Z,385
2017-05-15T06:01:36.966Z,410
2017-05-15T06:02:49.610Z,435
2017-05-15T06:04:03.659Z,440
2017-05-15T06:05:18.060Z,430
2017-05-15T06:06:33.418Z,420
2017-05-15T06:07:45.024Z,425
2017-05-15T06:09:00.438Z,445
2017-05-15T06:10:16.203Z,475
2017-05-15T06:11:31.589Z,490
2017-05-15T06:12:42.960Z,500
2017-05-15T06:13:58.319Z,490
2017-05-15T06:15:13.915Z,475
2017-05-15T06:16:29.257Z,455
2017-05-15T06:17:44.610Z,430
2017-05-15T06:19:00.182Z,415
2017-05-15T06:20:14.435Z,400
2017-05-15T06:21:29.887Z,385
2017-05-15T06:22:45.226Z,375
2017-05-15T06:24:00.814Z,345
2017-05-15T06:25:15.064Z,320
2017-05-15T06:26:30.471Z,305
2017-05-15T06:27:45.839Z,295
2017-05-15T06:28:59.927Z,290
2017-05-15T06:30:15.457Z,275
2017-05-15T06:31:29.403Z,280
2017-05-15T06:32:44.372Z,285
2017-05-15T06:33:57.023Z,290
2017-05-15T06:35:12.038Z,300
2017-05-15T06:36:27.700Z,305
2017-05-15T06:37:43.044Z,305
2017-05-15T06:38:58.417Z,305
2017-05-15T06:40:11.147Z,310
2017-05-15T06:41:26.681Z,320
2017-05-15T06:42:42.103Z,340
2017-05-15T06:43:57.483Z,355
2017-05-15T06:45:11.601Z,365
2017-05-15T06:46:27.176Z,385
2017-05-15T06:47:42.539Z,395
2017-05-15T06:48:57.899Z,410
2017-05-15T06:50:13.252Z,425
2017-05-15T06:51:28.869Z,430
2017-05-15T06:52:44.230Z,430
2017-05-15T06:53:57.010Z,415
2017-05-15T06:55:12.352Z,410
2017-05-15T06:56:26.628Z,425
2017-05-15T06:57:40.687Z,420
2017-05-15T06:58:54.814Z,420
2017-05-15T07:00:10.231Z,425
2017-05-15T07:01:25.800Z,420
2017-05-15T07:02:38.550Z,420
2017-05-15T07:03:51.419Z,400
2017-05-15T07:05:05.391Z,395
2017-05-15T07:06:20.764Z,375
2017-05-15T07:07:36.355Z,350
2017-05-15T07:08:50.494Z,325
2017-05-15T07:10:03.273Z,340
2017-05-15T07:11:18.745Z,360
2017-05-15T07:12:32.869Z,370
2017-05-15T07:13:46.804Z,345
2017-05-15T07:15:02.212Z,335
2017-05-15T07:16:14.842Z,325
2017-05-15T07:17:30.407Z,310
2017-05-15T07:18:45.903Z,305
2017-05-15T07:19:58.681Z,335
2017-05-15T07:21:12.844Z,310
2017-05-15T07:22:28.536Z,380
2017-05-15T07:23:44.001Z,325
2017-05-15T07:24:58.191Z,270
2017-05-15T07:26:13.558Z,280
2017-05-15T07:27:29.172Z,300
2017-05-15T07:28:44.530Z,325
2017-05-15T07:29:59.539Z,360
2017-05-15T07:31:14.892Z,330
2017-05-15T07:32:30.440Z,320
2017-05-15T07:33:44.611Z,355
2017-05-15T07:35:00.007Z,370
2017-05-15T07:36:14.058Z,430
2017-05-15T07:37:29.430Z,440
2017-05-15T07:38:43.745Z,505
2017-05-15T07:39:59.192Z,495
2017-05-15T07:41:14.563Z,530
2017-05-15T07:42:28.695Z,480
2017-05-15T07:43:44.387Z,445
2017-05-15T07:44:58.531Z,510
2017-05-15T07:46:13.869Z,570
2017-05-15T07:47:29.270Z,605
2017-05-15T07:48:43.555Z,685
2017-05-15T07:49:58.950Z,700
2017-05-15T07:51:12.993Z,705
2017-05-15T07:52:28.334Z,740
2017-05-15T07:53:42.650Z,665
2017-05-15T07:54:55.472Z,610
2017-05-15T07:56:10.806Z,765
2017-05-15T07:57:26.174Z,860
2017-05-15T07:58:41.723Z,860
2017-05-15T07:59:57.085Z,900
2017-05-15T08:01:12.479Z,890
2017-05-15T08:02:27.871Z,930
2017-05-15T08:03:43.585Z,870
2017-05-15T08:04:58.922Z,845
2017-05-15T08:06:14.334Z,930
2017-05-15T08:07:29.804Z,965
2017-05-15T08:08:44.119Z,990
2017-05-15T08:09:59.464Z,1025
2017-05-15T08:11:14.814Z,1030
2017-05-15T08:12:30.387Z,990
2017-05-15T08:13:46.038Z,1020
2017-05-15T08:14:59.988Z,1055
2017-05-15T08:16:15.340Z,995
2017-05-15T08:17:30.688Z,995
2017-05-15T08:18:44.849Z,1015
2017-05-15T08:19:58.906Z,1065
2017-05-15T08:21:12.978Z,1110
2017-05-15T08:22:27.039Z,1015
2017-05-15T08:23:42.391Z,945
2017-05-15T08:24:55.279Z,835
2017-05-15T08:26:10.614Z,780
2017-05-15T08:27:24.664Z,740
2017-05-15T08:28:38.726Z,730
2017-05-15T08:29:54.267Z,730
2017-05-15T08:31:09.672Z,775
2017-05-15T08:32:23.769Z,795
2017-05-15T08:33:37.821Z,1000
2017-05-15T08:34:53.523Z,915
2017-05-15T08:36:08.812Z,1045
2017-05-15T08:37:24.165Z,1715
2017-05-15T08:38:39.526Z,1940
2017-05-15T08:39:55.165Z,785
2017-05-15T08:41:10.726Z,1770
2017-05-15T08:42:26.227Z,1340
2017-05-15T08:43:41.561Z,3460
2017-05-15T08:44:55.894Z,3650
2017-05-15T08:46:09.949Z,1010
2017-05-15T08:47:25.301Z,835
2017-05-15T08:48:40.780Z,3495
2017-05-15T08:49:56.378Z,3405
2017-05-15T08:51:11.806Z,4175
2017-05-15T08:52:25.869Z,3785
2017-05-15T08:53:39.874Z,4220
2017-05-15T08:54:54.456Z,4095
2017-05-15T08:56:10.108Z,2990
2017-05-15T08:57:25.449Z,2765
2017-05-15T08:58:38.089Z,4315
2017-05-15T08:59:53.511Z,3975
2017-05-15T09:01:08.983Z,2745
2017-05-15T09:02:24.540Z,1665
2017-05-15T09:03:38.637Z,4000
2017-05-15T09:04:52.725Z,4440
2017-05-15T09:06:08.324Z,4430
2017-05-15T09:07:23.715Z,4165
2017-05-15T09:08:38.757Z,2400
2017-05-15T09:09:54.181Z,3940
2017-05-15T09:11:09.730Z,3965
2017-05-15T09:12:25.351Z,4025
2017-05-15T09:13:39.527Z,4120
2017-05-15T09:14:54.925Z,4120
2017-05-15T09:16:09.111Z,4060
2017-05-15T09:17:22.003Z,4225
2017-05-15T09:18:36.084Z,4470
2017-05-15T09:19:46.167Z,4330
2017-05-15T09:21:01.525Z,4370
2017-05-15T09:22:16.749Z,4715
2017-05-15T09:23:32.104Z,4825
2017-05-15T09:24:46.239Z,4825
2017-05-15T09:26:01.595Z,1550
2017-05-15T09:27:15.903Z,4640
2017-05-15T09:28:29.999Z,1635
2017-05-15T09:29:44.060Z,1210
2017-05-15T09:30:59.419Z,3445
2017-05-15T09:32:13.742Z,2065
2017-05-15T09:33:27.824Z,3165
2017-05-15T09:34:43.218Z,3450
2017-05-15T09:35:57.346Z,1450
2017-05-15T09:37:11.633Z,1640
2017-05-15T09:38:27.126Z,3215
2017-05-15T09:39:42.499Z,3700
2017-05-15T09:40:57.868Z,1970
2017-05-15T09:42:13.699Z,3615
2017-05-15T09:43:29.064Z,3735
2017-05-15T09:44:43.163Z,3625
2017-05-15T09:45:58.511Z,4025
2017-05-15T09:47:12.820Z,1605
2017-05-15T09:48:28.207Z,1345
2017-05-15T09:49:43.583Z,1250
2017-05-15T09:50:58.977Z,4375
2017-05-15T09:52:14.583Z,4500
2017-05-15T09:53:29.962Z,2365
2017-05-15T09:54:42.603Z,3955
2017-05-15T09:55:56.764Z,4005
2017-05-15T09:57:10.818Z,3925
2017-05-15T09:58:25.287Z,4335
2017-05-15T09:59:39.400Z,4690
2017-05-15T10:00:53.507Z,4970
2017-05-15T10:02:08.863Z,5135
2017-05-15T10:03:24.425Z,4930
2017-05-15T10:04:39.893Z,4750
2017-05-15T10:05:54.258Z,4510
2017-05-15T10:07:09.354Z,4155
2017-05-15T10:08:24.991Z,3955
2017-05-15T10:09:40.353Z,3975
2017-05-15T10:10:55.749Z,4220
2017-05-15T10:12:09.863Z,4675
2017-05-15T10:13:24.209Z,5190
2017-05-15T10:14:39.586Z,5495
2017-05-15T10:15:54.964Z,5605
2017-05-15T10:17:09.277Z,5500
2017-05-15T10:18:23.610Z,5295
2017-05-15T10:19:38.993Z,4920
2017-05-15T10:20:54.381Z,4630
2017-05-15T10:22:09.785Z,4685
2017-05-15T10:23:25.388Z,4810
2017-05-15T10:24:40.767Z,5000
2017-05-15T10:25:53.456Z,5390
2017-05-15T10:27:08.877Z,6055
2017-05-15T10:28:24.452Z,6330
2017-05-15T10:29:39.834Z,6360
2017-05-15T10:30:55.208Z,3115
2017-05-15T10:32:09.283Z,2340
2017-05-15T10:33:24.890Z,1780
2017-05-15T10:34:40.318Z,2075
2017-05-15T10:35:55.781Z,4265
2017-05-15T10:37:08.345Z,5300
2017-05-15T10:38:22.425Z,4930
2017-05-15T10:39:36.773Z,4700
2017-05-15T10:40:52.191Z,4905
2017-05-15T10:42:07.569Z,5080
2017-05-15T10:43:22.616Z,4930
2017-05-15T10:44:36.893Z,4785
2017-05-15T10:45:52.273Z,4575
2017-05-15T10:47:06.363Z,4535
2017-05-15T10:48:20.521Z,4830
2017-05-15T10:49:36.080Z,5185
2017-05-15T10:50:51.120Z,5605
2017-05-15T10:52:06.552Z,5920
2017-05-15T10:53:19.381Z,5445
2017-05-15T10:54:34.960Z,5245
2017-05-15T10:55:49.042Z,4850
2017-05-15T10:57:04.447Z,4905
2017-05-15T10:58:18.445Z,5230
2017-05-15T10:59:34.057Z,5840
2017-05-15T11:00:49.551Z,6335
2017-05-15T11:02:04.961Z,6480
2017-05-15T11:03:20.428Z,6335
2017-05-15T11:04:34.782Z,6175
2017-05-15T11:05:48.750Z,5520
2017-05-15T11:07:02.835Z,5445
2017-05-15T11:08:18.211Z,5380
2017-05-15T11:09:30.948Z,5270
2017-05-15T11:10:43.610Z,5340
2017-05-15T11:11:57.632Z,1195
2017-05-15T11:13:11.730Z,5155
2017-05-15T11:14:26.856Z,4875
2017-05-15T11:15:40.830Z,5015
2017-05-15T11:16:56.189Z,5165
2017-05-15T11:18:11.652Z,5350
2017-05-15T11:19:27.038Z,5565
2017-05-15T11:20:42.812Z,5585
2017-05-15T11:21:58.189Z,5490
2017-05-15T11:23:13.547Z,5415
2017-05-15T11:24:28.926Z,5455
2017-05-15T11:25:43.296Z,5600
2017-05-15T11:26:57.601Z,5475
2017-05-15T11:28:13.006Z,5230
2017-05-15T11:29:27.088Z,4860
2017-05-15T11:30:42.662Z,4515
2017-05-15T11:31:56.683Z,4440
2017-05-15T11:33:12.124Z,4625
2017-05-15T11:34:27.496Z,4680
2017-05-15T11:35:43.123Z,2725
2017-05-15T11:36:56.085Z,4785
2017-05-15T11:38:11.468Z,4935
2017-05-15T11:39:26.869Z,5540
2017-05-15T11:40:42.513Z,5845
2017-05-15T11:41:58.016Z,5590
2017-05-15T11:43:12.167Z,5365
2017-05-15T11:44:27.569Z,4320
2017-05-15T11:45:41.730Z,4985
2017-05-15T11:46:55.850Z,5065
2017-05-15T11:48:11.227Z,5345
2017-05-15T11:49:26.649Z,5490
2017-05-15T11:50:42.321Z,5470
2017-05-15T11:51:57.955Z,5455
2017-05-15T11:53:13.347Z,5210
2017-05-15T11:54:26.277Z,4830
2017-05-15T11:55:40.485Z,4500
2017-05-15T11:56:56.058Z,4395
2017-05-15T11:58:11.420Z,4250
2017-05-15T11:59:25.380Z,4295
2017-05-15T12:00:40.734Z,4445
2017-05-15T12:01:56.405Z,4805
2017-05-15T12:03:11.845Z,5130
2017-05-15T12:04:25.942Z,5145
2017-05-15T12:06:12.237Z,4760
2017-05-15T12:07:27.877Z,4735
2017-05-15T12:08:43.269Z,4785
2017-05-15T12:09:57.370Z,4715
2017-05-15T12:11:12.739Z,4350
2017-05-15T12:12:28.360Z,4015
2017-05-15T12:13:43.361Z,3805
2017-05-15T12:14:58.732Z,4090
2017-05-15T12:16:14.141Z,2760
2017-05-15T12:17:28.330Z,4855
2017-05-15T12:18:43.949Z,4860
2017-05-15T12:19:59.333Z,1530
2017-05-15T12:21:13.418Z,4225
2017-05-15T12:22:29.019Z,4015
2017-05-15T12:23:44.440Z,3415
2017-05-15T12:24:59.822Z,4010
2017-05-15T12:26:13.926Z,4125
2017-05-15T12:27:29.517Z,4610
2017-05-15T12:28:44.947Z,5035
2017-05-15T12:30:00.305Z,5145
2017-05-15T12:31:13.106Z,4950
2017-05-15T12:32:28.808Z,4390
2017-05-15T12:33:44.210Z,3820
2017-05-15T12:34:58.297Z,3575
2017-05-15T12:36:12.392Z,3675
2017-05-15T12:37:27.970Z,4105
2017-05-15T12:38:43.429Z,4380
2017-05-15T12:39:58.818Z,4470
2017-05-15T12:41:14.208Z,4335
2017-05-15T12:42:29.868Z,4350
2017-05-15T12:43:44.243Z,4585
2017-05-15T12:44:59.724Z,4700
2017-05-15T12:46:15.108Z,4740
2017-05-15T12:47:30.809Z,4820
2017-05-15T12:48:46.275Z,4560
2017-05-15T12:50:02.250Z,5180
2017-05-15T12:51:17.650Z,5090
2017-05-15T12:52:33.282Z,4975
2017-05-15T12:53:48.670Z,4715
2017-05-15T12:55:04.091Z,915
2017-05-15T12:56:19.765Z,1390
2017-05-15T12:57:35.376Z,3430
2017-05-15T12:58:50.980Z,4630
2017-05-15T13:00:06.363Z,4455
2017-05-15T13:01:21.732Z,4520
2017-05-15T13:02:37.538Z,4480
2017-05-15T13:03:53.158Z,4380
2017-05-15T13:05:05.997Z,4220
2017-05-15T13:06:20.098Z,4100
2017-05-15T13:07:35.701Z,4030
2017-05-15T13:08:51.126Z,4095
2017-05-15T13:10:06.580Z,4080
2017-05-15T13:11:22.035Z,4040
2017-05-15T13:12:37.709Z,4105
2017-05-15T13:13:53.080Z,4175
2017-05-15T13:15:08.625Z,4270
2017-05-15T13:16:24.013Z,4395
2017-05-15T13:17:39.651Z,4520
2017-05-15T13:18:53.819Z,4530
2017-05-15T13:20:09.425Z,4315
2017-05-15T13:21:25.027Z,4005
2017-05-15T13:22:40.721Z,3740
2017-05-15T13:23:54.807Z,3510
2017-05-15T13:25:10.224Z,3455
2017-05-15T13:26:25.608Z,3470
2017-05-15T13:27:41.222Z,3800
2017-05-15T13:28:56.806Z,3990
2017-05-15T13:30:12.256Z,4090
2017-05-15T13:31:27.701Z,4020
2017-05-15T13:32:43.334Z,3665
2017-05-15T13:33:57.410Z,3545
2017-05-15T13:35:12.531Z,3295
2017-05-15T13:36:27.884Z,4210
2017-05-15T13:37:43.492Z,4390
2017-05-15T13:38:58.940Z,4385
2017-05-15T13:40:14.368Z,4035
2017-05-15T13:41:29.749Z,3840
2017-05-15T13:42:44.036Z,3735
2017-05-15T13:43:58.133Z,3795
2017-05-15T13:45:13.548Z,3870
2017-05-15T13:46:28.973Z,3850
2017-05-15T13:47:44.573Z,3850
2017-05-15T13:48:59.967Z,3825
2017-05-15T13:50:14.149Z,3765
2017-05-15T13:51:29.519Z,3520
2017-05-15T13:52:45.260Z,3380
2017-05-15T13:53:59.363Z,3415
2017-05-15T13:55:14.781Z,3530
2017-05-15T13:56:30.152Z,3500
2017-05-15T13:57:44.250Z,3395
2017-05-15T13:58:59.898Z,3240
2017-05-15T14:00:15.267Z,3165
2017-05-15T14:01:30.656Z,3035
2017-05-15T14:02:46.128Z,3100
2017-05-15T14:04:00.411Z,3180
2017-05-15T14:05:15.838Z,3080
2017-05-15T14:06:31.241Z,3070
2017-05-15T14:07:46.662Z,2815
2017-05-15T14:09:02.334Z,2530
2017-05-15T14:10:17.375Z,2630
2017-05-15T14:11:32.794Z,2785
2017-05-15T14:12:48.235Z,2805
2017-05-15T14:14:04.102Z,2795
2017-05-15T14:15:16.775Z,2740
2017-05-15T14:16:31.805Z,2905
2017-05-15T14:17:47.226Z,3300
2017-05-15T14:19:02.916Z,3600
2017-05-15T14:20:18.579Z,3490
2017-05-15T14:21:34.010Z,2995
2017-05-15T14:22:49.434Z,2630
2017-05-15T14:24:03.792Z,2375
2017-05-15T14:25:19.411Z,2500
2017-05-15T14:26:35.078Z,2840
2017-05-15T14:27:50.498Z,3045
2017-05-15T14:29:04.730Z,3180
2017-05-15T14:30:19.792Z,3105
2017-05-15T14:31:35.193Z,3275
2017-05-15T14:32:49.329Z,3270
2017-05-15T14:34:02.391Z,3180
2017-05-15T14:35:16.472Z,2870
2017-05-15T14:36:31.892Z,2640
2017-05-15T14:37:47.290Z,2260
2017-05-15T14:39:01.731Z,2150
2017-05-15T14:40:17.128Z,2365
2017-05-15T14:41:32.548Z,2130
2017-05-15T14:42:48.136Z,1600
2017-05-15T14:44:01.045Z,1600
2017-05-15T14:45:16.479Z,1580
2017-05-15T14:46:31.833Z,2245
2017-05-15T14:47:45.938Z,2175
2017-05-15T14:49:00.052Z,2410
2017-05-15T14:50:15.683Z,2760
2017-05-15T14:51:31.087Z,2040
2017-05-15T14:52:46.465Z,1370
2017-05-15T14:54:02.131Z,990
2017-05-15T14:55:15.004Z,1235
2017-05-15T14:56:30.065Z,1355
2017-05-15T14:57:45.450Z,1425
2017-05-15T14:59:00.817Z,1265
2017-05-15T15:00:15.082Z,980
2017-05-15T15:01:29.171Z,1280
2017-05-15T15:02:44.604Z,935
2017-05-15T15:03:58.582Z,1135
2017-05-15T15:05:12.919Z,915
2017-05-15T15:06:27.978Z,1060
2017-05-15T15:07:43.607Z,670
2017-05-15T15:08:59.071Z,1165
2017-05-15T15:10:13.394Z,1135
2017-05-15T15:11:28.814Z,815
2017-05-15T15:12:43.956Z,690
2017-05-15T15:13:58.077Z,905
2017-05-15T15:15:13.990Z,745
2017-05-15T15:16:26.861Z,655
2017-05-15T15:17:40.925Z,605
2017-05-15T15:18:55.071Z,545
2017-05-15T15:20:10.110Z,575
2017-05-15T15:21:25.305Z,540
2017-05-15T15:22:40.734Z,585
2017-05-15T15:23:55.084Z,625
2017-05-15T15:25:10.696Z,670
2017-05-15T15:26:25.951Z,645
2017-05-15T15:27:40.968Z,640
2017-05-15T15:28:55.099Z,650
2017-05-15T15:30:10.457Z,645
2017-05-15T15:31:24.918Z,625
2017-05-15T15:32:38.870Z,580
2017-05-15T15:33:53.213Z,630
2017-05-15T15:35:08.581Z,630
2017-05-15T15:36:22.939Z,620
2017-05-15T15:37:38.332Z,605
2017-05-15T15:38:53.952Z,580
2017-05-15T15:40:07.907Z,545
2017-05-15T15:41:23.546Z,515
2017-05-15T15:42:38.916Z,480
2017-05-15T15:43:54.280Z,455
2017-05-15T15:45:09.645Z,440
2017-05-15T15:46:25.485Z,420
2017-05-15T15:47:40.852Z,410
2017-05-15T15:48:56.245Z,395
2017-05-15T15:50:10.402Z,400
2017-05-15T15:51:26.058Z,395
2017-05-15T15:52:40.121Z,385
2017-05-15T15:53:54.070Z,385
2017-05-15T15:55:09.445Z,385
2017-05-15T15:56:23.758Z,385
2017-05-15T15:57:37.831Z,390
2017-05-15T15:58:53.213Z,385
2017-05-15T16:00:08.834Z,370
2017-05-15T16:01:24.466Z,365
2017-05-15T16:02:39.870Z,355
2017-05-15T16:03:55.234Z,345
2017-05-15T16:05:10.256Z,325
2017-05-15T16:06:24.216Z,305
2017-05-15T16:07:39.607Z,315
2017-05-15T16:08:55.028Z,310
2017-05-15T16:10:10.402Z,315
2017-05-15T16:11:24.512Z,310
2017-05-15T16:12:39.878Z,310
2017-05-15T16:13:55.476Z,300
2017-05-15T16:15:10.899Z,335
2017-05-15T16:16:26.310Z,355
2017-05-15T16:17:41.686Z,375
2017-05-15T16:18:57.066Z,390
2017-05-15T16:20:12.493Z,405
2017-05-15T16:21:25.133Z,430
2017-05-15T16:22:39.396Z,435
2017-05-15T16:23:53.530Z,455
2017-05-15T16:25:08.920Z,460
2017-05-15T16:26:23.004Z,450
2017-05-15T16:27:38.600Z,430
2017-05-15T16:28:52.675Z,420
2017-05-15T16:30:08.050Z,390
2017-05-15T16:31:19.407Z,370
2017-05-15T16:32:35.165Z,370
2017-05-15T16:33:50.662Z,360
2017-05-15T16:35:06.342Z,355
2017-05-15T16:36:21.727Z,355
2017-05-15T16:37:36.151Z,360
2017-05-15T16:38:51.563Z,350
2017-05-15T16:40:04.814Z,345
2017-05-15T16:41:20.248Z,340
2017-05-15T16:42:34.370Z,335
2017-05-15T16:43:50.051Z,335
2017-05-15T16:45:04.363Z,330
2017-05-15T16:46:19.759Z,320
2017-05-15T16:47:35.271Z,305
2017-05-15T16:48:50.993Z,285
2017-05-15T16:50:04.966Z,275
2017-05-15T16:51:20.325Z,275
2017-05-15T16:52:35.689Z,265
2017-05-15T16:53:49.882Z,260
2017-05-15T16:55:03.625Z,255
2017-05-15T16:56:19.015Z,250
2017-05-15T16:57:34.381Z,250
2017-05-15T16:58:48.666Z,245
2017-05-15T17:00:04.035Z,240
2017-05-15T17:01:19.142Z,230
2017-05-15T17:02:34.516Z,225
2017-05-15T17:03:49.942Z,215
2017-05-15T17:05:03.947Z,210
2017-05-15T17:06:17.677Z,205
2017-05-15T17:07:33.071Z,195
2017-05-15T17:08:48.270Z,190
2017-05-15T17:10:03.774Z,185
2017-05-15T17:11:19.228Z,180
2017-05-15T17:12:34.583Z,180
2017-05-15T17:13:50.299Z,175
2017-05-15T17:15:02.950Z,175